Flight Track Log - Related Links

Times and Time Zones

All times are in EDT time to prevent confusion due to time zone crossing. See the N231GV flight status page for this flight to view local times or setup timezone preferences in your user account.

Time Position Orientation Groundspeed Altitude Reporting Facility
EDT Latitude Longitude Course Direction KTS MPH feet Rate Location/Type
Thu 05:30:11 PM 38.4039 -78.3711 318° Northwest 109 125 13,000  Level Washington Center
Thu 05:32:12 PM 38.4567 -78.4314 318° Northwest 114 131 14,400 696 Climbing Washington Center
Thu 05:33:12 PM 38.4831 -78.4589 321° Northwest 119 137 15,100 700 Climbing Washington Center
Thu 05:34:12 PM 38.5094 -78.4864 321° Northwest 119 137 15,800 661 Climbing Washington Center
Thu 05:35:10 PM 38.5361 -78.5139 321° Northwest 119 137 16,400 303 Climbing Washington Center
Thu 05:36:11 PM 38.5664 -78.5444 322° Northwest 124 143 16,400  Level Washington Center
Thu 05:37:12 PM 38.6011 -78.5778 323° Northwest 141 162 16,400 50 Level Washington Center
Thu 05:38:10 PM 38.6356 -78.6161 319° Northwest 152 175 16,500 50 Climbing Washington Center
Thu 05:39:11 PM 38.6722 -78.6497 324° Northwest 152 175 16,500  Level Washington Center
Thu 05:40:12 PM 38.7089 -78.6883 321° Northwest 157 181 16,500  Level Washington Center
Thu 05:41:12 PM 38.7453 -78.7272 320° Northwest 162 186 16,500  Level Washington Center
Thu 05:42:11 PM 38.7800 -78.7633 321° Northwest 162 186 16,500  Level Washington Center
Thu 05:43:11 PM 38.8144 -78.7994 321° Northwest 162 186 16,500  Level Washington Center
Thu 05:44:12 PM 38.8489 -78.8383 319° Northwest 162 186 16,500  Level Washington Center
Thu 05:45:10 PM 38.8833 -78.8717 323° Northwest 162 186 16,500  Level Washington Center
Thu 05:46:11 PM 38.9156 -78.9106 317° Northwest 162 186 16,500  Level Washington Center
Thu 05:47:11 PM 38.9500 -78.9442 323° Northwest 162 186 16,500  Level Washington Center
Thu 05:48:11 PM 38.9825 -78.9803 319° Northwest 162 186 16,500  Level Washington Center
Thu 05:49:12 PM 39.0169 -79.0167 321° Northwest 162 186 16,500  Level Washington Center
Thu 05:50:10 PM 39.0492 -79.0503 321° Northwest 162 186 16,500  Level Washington Center
Thu 05:51:11 PM 39.0836 -79.0867 321° Northwest 162 186 16,500  Level Washington Center
Thu 05:52:11 PM 39.1158 -79.1231 319° Northwest 162 186 16,500  Level Washington Center
Thu 05:53:13 PM 39.1483 -79.1567 321° Northwest 156 180 16,500  Level Washington Center
Thu 05:54:10 PM 39.1806 -79.1958 317° Northwest 156 180 16,500  Level Washington Center
Thu 05:55:10 PM 39.2128 -79.2269 323° Northwest 156 180 16,500 29 Level Washington Center
Thu 05:57:35 PM 39.2950 -79.3172 320° Northwest 160 184 16,600 29 Climbing Cleveland Center
Thu 05:58:35 PM 39.3269 -79.3567 316° Northwest 160 184 16,600  Level Cleveland Center
Thu 05:59:35 PM 39.3606 -79.3936 320° Northwest 160 184 16,600  Level Cleveland Center
Thu 06:00:35 PM 39.3944 -79.4308 320° Northwest 160 184 16,600  Level Cleveland Center
Thu 06:01:35 PM 39.4281 -79.4678 320° Northwest 160 184 16,600  Level Cleveland Center
Thu 06:02:35 PM 39.4597 -79.5078 316° Northwest 160 184 16,600  Level Cleveland Center
Thu 06:03:35 PM 39.4933 -79.5475 318° Northwest 160 184 16,600  Level Cleveland Center
Thu 06:04:35 PM 39.5269 -79.5847 320° Northwest 165 190 16,600  Level Cleveland Center
Thu 06:05:35 PM 39.5586 -79.6244 316° Northwest 165 190 16,600  Level Cleveland Center
Thu 06:06:35 PM 39.5944 -79.6617 321° Northwest 165 190 16,600  Level Cleveland Center
Thu 06:07:35 PM 39.6281 -79.6989 320° Northwest 165 190 16,600  Level Cleveland Center
Thu 06:08:35 PM 39.6639 -79.7389 319° Northwest 165 190 16,600  Level Cleveland Center
Thu 06:09:35 PM 39.6994 -79.7792 319° Northwest 165 190 16,600  Level Cleveland Center
Thu 06:10:35 PM 39.7331 -79.8164 320° Northwest 165 190 16,600  Level Cleveland Center
Thu 06:11:35 PM 39.7689 -79.8567 319° Northwest 165 190 16,600  Level Cleveland Center
Thu 06:12:35 PM 39.8067 -79.8994 319° Northwest 165 190 16,600 -50 Level Cleveland Center
Thu 06:13:35 PM 39.8422 -79.9397 319° Northwest 170 196 16,500 -50 Descending Cleveland Center
Thu 06:14:35 PM 39.8758 -79.9797 318° Northwest 170 196 16,500 50 Level Cleveland Center
Thu 06:15:35 PM 39.9114 -80.0175 321° Northwest 170 196 16,600  Climbing Cleveland Center
Thu 06:16:35 PM 39.9472 -80.0578 319° Northwest 170 196 16,500  Descending Cleveland Center
Thu 06:17:35 PM 39.9828 -80.0981 319° Northwest 170 196 16,600  Climbing Cleveland Center
Thu 06:18:35 PM 40.0164 -80.1386 317° Northwest 170 196 16,500 -50 Descending Cleveland Center
Thu 06:19:35 PM 40.0519 -80.1789 319° Northwest 170 196 16,500  Level Cleveland Center
Thu 06:20:35 PM 40.0853 -80.2167 319° Northwest 170 196 16,500  Level Cleveland Center
Thu 06:21:35 PM 40.1167 -80.2572 315° West 170 196 16,500  Level Cleveland Center
Thu 06:22:35 PM 40.1522 -80.2978 319° Northwest 170 196 16,500  Level Cleveland Center
Thu 06:23:35 PM 40.1878 -80.3386 319° Northwest 170 196 16,500  Level Cleveland Center
Thu 06:24:35 PM 40.2275 -80.3764 324° Northwest 170 196 16,500  Level Cleveland Center
Thu 06:25:35 PM 40.2608 -80.4197 315° West 170 196 16,500  Level Cleveland Center
Thu 06:26:35 PM 40.2986 -80.4578 322° Northwest 170 196 16,500  Level Cleveland Center
Thu 06:27:35 PM 40.3361 -80.5069 315° West 170 196 16,500  Level Cleveland Center
Thu 06:28:35 PM 40.3736 -80.5478 320° Northwest 170 196 16,500  Level Cleveland Center
Thu 06:29:35 PM 40.4111 -80.5914 318° Northwest 170 196 16,500  Level Cleveland Center
Thu 06:30:35 PM 40.4467 -80.6294 321° Northwest 170 196 16,500  Level Cleveland Center
Thu 06:31:35 PM 40.4819 -80.6731 317° Northwest 170 196 16,500  Level Cleveland Center
Thu 06:32:35 PM 40.5175 -80.7142 319° Northwest 170 196 16,500  Level Cleveland Center
Thu 06:33:35 PM 40.5547 -80.7553 320° Northwest 170 196 16,500  Level Cleveland Center
Thu 06:34:35 PM 40.5903 -80.7992 317° Northwest 170 196 16,500  Level Cleveland Center
Thu 06:35:35 PM 40.6256 -80.8403 319° Northwest 170 196 16,500  Level Cleveland Center
Thu 06:36:36 PM 40.6631 -80.8842 318° Northwest 170 196 16,500  Level Cleveland Center
Thu 06:37:35 PM 40.7003 -80.9281 318° Northwest 170 196 16,500  Level Cleveland Center
Thu 06:38:35 PM 40.7378 -80.9722 318° Northwest 170 196 16,500  Level Cleveland Center
Thu 06:39:35 PM 40.7731 -81.0136 318° Northwest 170 196 16,500  Level Cleveland Center
Thu 06:40:35 PM 40.8083 -81.0603 315° West 170 196 16,500  Level Cleveland Center
Thu 06:41:36 PM 40.8456 -81.1047 318° Northwest 170 196 16,500  Level Cleveland Center
Thu 06:42:35 PM 40.8831 -81.1489 318° Northwest 170 196 16,500  Level Cleveland Center
Thu 06:43:35 PM 40.9203 -81.1931 318° Northwest 170 196 16,500  Level Cleveland Center
Thu 06:44:35 PM 40.9575 -81.2347 320° Northwest 170 196 16,500  Level Cleveland Center
Thu 06:45:35 PM 40.9947 -81.2792 318° Northwest 170 196 16,500  Level Cleveland Center
Thu 06:46:35 PM 41.0300 -81.3236 316° Northwest 170 196 16,500  Level Cleveland Center
Thu 06:47:35 PM 41.0672 -81.3653 320° Northwest 170 196 16,500  Level Cleveland Center
Thu 06:48:35 PM 41.1022 -81.4069 318° Northwest 170 196 16,500  Level Cleveland Center
Thu 06:49:35 PM 41.1417 -81.4517 320° Northwest 170 196 16,500  Level Cleveland Center
Thu 06:50:35 PM 41.1767 -81.4933 318° Northwest 170 196 16,500  Level Cleveland Center
Thu 06:51:35 PM 41.2117 -81.5381 316° Northwest 170 196 16,500  Level Cleveland Center
Thu 06:52:35 PM 41.2342 -81.5908 300° West 170 196 16,500  Level Cleveland Center
Thu 06:53:35 PM 41.2714 -81.6331 320° Northwest 170 196 16,500  Level Cleveland Center
Thu 06:54:35 PM 41.3067 -81.6611 329° Northwest 165 190 16,500  Level Cleveland Center
Thu 06:55:35 PM 41.3519 -81.7089 322° Northwest 170 196 16,500  Level Cleveland Center
Thu 06:56:35 PM 41.3869 -81.7567 314° West 175 201 16,500 -200 Level Cleveland Center
Thu 06:57:35 PM 41.4178 -81.8042 311° West 180 207 16,100 -300 Descending Cleveland Center
Thu 06:58:35 PM 41.4567 -81.8519 317° Northwest 186 214 15,900 -200 Descending Cleveland Center
Thu 06:59:35 PM 41.4958 -81.8972 319° Northwest 186 214 15,700 -250 Descending Cleveland Center
Thu 07:00:35 PM 41.5328 -81.9422 318° Northwest 186 214 15,400 -400 Descending Cleveland Center
Thu 07:01:35 PM 41.5739 -81.9931 317° Northwest 186 214 14,900 -700 Descending Cleveland Center
Thu 07:02:35 PM 41.6131 -82.0383 319° Northwest 186 214 14,000 -1,000 Descending Cleveland Center
Thu 07:03:35 PM 41.6622 -82.0953 319° Northwest 194 223 12,900 -1,000 Descending Cleveland Center
Thu 07:04:35 PM 41.6992 -82.1378 319° Northwest 194 223 12,000 -950 Descending Cleveland Center
Thu 07:05:35 PM 41.7403 -82.1889 317° Northwest 199 229 11,000 -950 Descending Cleveland Center
Thu 07:06:35 PM 41.7811 -82.2400 317° Northwest 199 229 10,100 -900 Descending Cleveland Center
Thu 07:07:35 PM 41.8200 -82.2883 317° Northwest 199 229 9,200 -950 Descending Cleveland Center
Thu 07:08:35 PM 41.8589 -82.3339 319° Northwest 194 223 8,200 -900 Descending Cleveland Center
Thu 07:09:35 PM 41.8958 -82.3797 317° Northwest 194 223 7,400 -850 Descending Cleveland Center
Thu 07:10:35 PM 41.9325 -82.4253 317° Northwest 189 217 6,500 -900 Descending Cleveland Center
Thu 07:11:35 PM 41.9694 -82.4683 319° Northwest 183 211 5,600 -600 Descending Cleveland Center
Thu 07:12:35 PM 41.9981 -82.5083 314° West 178 205 5,300 -300 Descending Cleveland Center
Thu 07:13:35 PM 42.0328 -82.5483 319° Northwest 166 191 5,000 -300 Descending Cleveland Center
Thu 07:14:35 PM 42.0633 -82.5831 320° Northwest 155 178 4,700 -250 Descending Cleveland Center
Thu 07:15:35 PM 42.0919 -82.6203 316° Northwest 150 173 4,500 -250 Descending Cleveland Center
Thu 07:16:35 PM 42.1225 -82.6603 316° Northwest 150 173 4,200 -343 Descending Cleveland Center
Thu 07:17:55 PM 42.1694 -82.7150 319° Northwest 151 174 3,700 -340 Descending Cleveland Center
Thu 07:18:56 PM 42.2000 -82.7553 316° Northwest 152 175 3,400 -295 Descending Cleveland Center
Thu 07:19:57 PM 42.2347 -82.7903 323° Northwest 150 173 3,100 -344 Descending Cleveland Center
Thu 07:20:58 PM 42.2631 -82.8306 314° West 153 176 2,700 -148 Descending Cleveland Center
Thu 07:21:59 PM 42.2956 -82.8708 317° Northwest 143 165 2,800  Climbing Cleveland Center
Thu 07:23:06 PM 42.3242 -82.9086 316° Northwest 135 155 2,700 -422 Descending Cleveland Center
Thu 07:24:07 PM 42.3503 -82.9489 311° West 148 170 1,900 -787 Descending Cleveland Center
Thu 07:25:08 PM 42.3811 -82.9808 323° Northwest 129 148 1,100 -787 Descending Cleveland Center
Thu 07:27:00 PM 42.4000 -83.0000 324° Northwest  Level FlightAware Approximate
Thu 07:34:00 PM 42.4093 -83.0102 324° Northwest  Level Estimated
Thu 07:35:00 PM 42.4093 -83.0102 324° Northwest  Level Estimated

Login

Don't have an account? Register now (free) for customized features, flight alerts, and more!